Latest Weather Observations for Douglas River

IDD60801

Issued at 12:01 pm CST Thursday 23 February 2017 (issued every 30 minutes, with the page automatically refreshed every 10 minutes)

About weather observations | Map of weather stations | Latest weather observations for NT | Other Formats
Station Details ID: 014901 Name: DOUGLAS RIVER Lat: -13.83 Lon: 131.19 Height: 42.8 m
Data from the previous 72 hours. | See also: Recent months at Douglas River
Date/Time
CST
Temp
°C
App
Temp
°C
Dew
Point
°C
Rel
Hum
%
Delta-T
°C
Wind Press
QNH
hPa
Press
MSL
hPa
Rain since
9am
mm
Dir  Spd
km/h
Gust
km/h
Spd
kts
Gust
kts
23/12:00pm 33.1 36.4 21.8 51 7.7 W 7 11 4 6 1009.2 1008.9 0.0
23/11:30am 32.3 35.5 21.7 53 7.2 SW 7 13 4 7 1009.6 1009.3 0.0
23/11:00am 31.7 35.2 22.2 57 6.5 WSW 7 13 4 7 1009.8 1009.5 0.0
23/10:30am 30.5 32.8 21.4 58 6.1 W 11 17 6 9 1009.9 1009.6 0.0
23/10:00am 29.5 32.5 21.3 61 5.5 WSW 7 15 4 8 1010.4 1010.1 0.0
23/09:30am 28.4 33.4 23.8 76 3.2 SW 4 7 2 4 1010.7 1010.4 0.0
23/09:00am 27.0 31.8 24.1 84 2.0 WNW 6 9 3 5 1010.5 1010.2 0.0
23/08:30am 25.8 30.4 23.8 89 1.4 NE 6 11 3 6 1010.5 1010.2 0.0
23/08:00am 24.4 28.6 23.1 92 0.9 NNE 6 9 3 5 1010.2 1009.9 0.0
23/07:30am 22.4 25.7 21.9 97 0.3 WNW 7 9 4 5 1009.7 1009.4 0.0
23/07:00am 21.7 26.0 21.2 97 0.3 CALM 0 0 0 0 1009.8 1009.5 0.0
23/06:30am 21.6 24.5 21.1 97 0.3 ESE 7 15 4 8 1009.8 1009.5 0.0
23/06:00am 22.1 25.3 21.6 97 0.3 NNE 7 9 4 5 1009.2 1008.9 0.0
23/05:30am 21.8 25.0 21.3 97 0.3 NNE 6 9 3 5 1008.9 1008.6 0.0
23/05:00am 21.5 25.1 21.2 98 0.2 E 4 11 2 6 1008.9 1008.6 0.0
23/04:30am 22.2 26.7 21.6 96 0.4 CALM 0 0 0 0 1008.3 1008.0 0.0
23/04:00am 22.8 27.6 22.2 96 0.4 CALM 0 0 0 0 1008.3 1008.0 0.0
23/03:30am 23.0 26.7 22.3 96 0.5 NW 6 7 3 4 1008.3 1008.0 0.0
23/03:00am 23.2 26.9 22.5 96 0.5 NW 7 9 4 5 1008.4 1008.1 0.0
23/02:30am 23.2 26.8 22.3 95 0.6 WNW 7 9 4 5 1008.7 1008.4 0.0
23/02:00am 23.9 27.9 22.7 93 0.8 NNW 6 9 3 5 1009.0 1008.7 0.0
23/01:30am 24.2 28.2 22.7 91 1.0 NNW 6 9 3 5 1009.3 1009.0 0.0
23/01:00am 24.4 28.3 22.9 91 1.0 NNW 7 9 4 5 1009.6 1009.3 0.0
23/12:30am 24.7 28.6 22.9 90 1.2 NNW 7 9 4 5 1010.0 1009.7 0.0
23/12:00am 24.9 29.2 23.3 91 1.1 NNW 6 9 3 5 1010.5 1010.2 0.0
 
Date/Time
CST
Temp
°C
App
Temp
°C
Dew
Point
°C
Rel
Hum
%
Delta-T
°C
Wind Press
QNH
hPa
Press
MSL
hPa
Rain since
9am
mm
Dir  Spd
km/h
Gust
km/h
Spd
kts
Gust
kts
22/11:30pm 25.3 29.5 23.5 90 1.2 NW 7 11 4 6 1010.6 1010.3 0.0
22/11:00pm 25.4 31.0 23.6 90 1.2 CALM 0 6 0 3 1010.5 1010.2 0.0
22/10:30pm 26.0 30.9 23.7 87 1.6 NW 4 7 2 4 1010.4 1010.1 0.0
22/10:00pm 26.6 30.8 23.5 83 2.1 WNW 7 9 4 5 1010.3 1010.0 0.0
22/09:30pm 27.0 31.1 23.2 80 2.6 NW 7 11 4 6 1009.9 1009.6 0.0
22/09:00pm 25.9 29.2 21.5 76 2.9 WNW 6 15 3 8 1009.6 1009.3 0.0
22/08:30pm 27.1 32.0 22.4 75 3.2 CALM 0 0 0 0 1009.1 1008.8 0.0
22/08:00pm 28.3 32.7 21.3 65 4.7 CALM 0 0 0 0 1008.7 1008.4 0.0
22/07:30pm 29.7 33.4 20.0 56 6.4 CALM 0 0 0 0 1008.4 1008.1 0.0
22/07:00pm 31.4 34.3 18.3 45 8.5 CALM 0 0 0 0 1008.1 1007.8 0.0
22/06:30pm 34.4 38.2 20.2 43 9.5 CALM 0 6 0 3 1007.8 1007.5 0.0
22/06:00pm 34.7 36.0 17.5 36 11.1 ESE 7 11 4 6 1007.6 1007.3 0.0
22/05:30pm 35.2 34.9 15.5 30 12.4 SE 11 15 6 8 1007.5 1007.2 0.0
22/05:00pm 35.5 35.4 15.9 31 12.4 SE 11 17 6 9 1007.4 1007.1 0.0
22/04:30pm 35.7 35.2 14.9 29 13.0 SSW 11 15 6 8 1007.4 1007.1 0.0
22/04:00pm 36.1 36.2 15.5 29 13.0 SSW 9 17 5 9 1007.4 1007.1 0.0
22/03:30pm 35.7 36.0 16.0 31 12.5 SW 9 15 5 8 1007.7 1007.4 0.0
22/03:00pm 35.1 34.5 15.6 31 12.3 SSW 13 24 7 13 1007.9 1007.6 0.0
22/02:30pm 35.1 35.4 17.1 34 11.6 SSW 11 19 6 10 1008.2 1007.9 0.0
22/02:00pm 35.1 35.1 15.3 30 12.4 SSW 9 19 5 10 1008.7 1008.4 0.0
22/01:30pm 34.4 34.8 16.3 34 11.5 W 9 17 5 9 1009.2 1008.9 0.0
22/01:00pm 34.0 35.6 18.2 39 10.3 WSW 7 13 4 7 1009.7 1009.4 0.0
22/12:30pm 33.5 34.8 18.5 41 9.8 SW 9 15 5 8 1010.3 1010.0 0.0
22/12:00pm 33.3 35.2 19.7 44 9.0 SW 9 17 5 9 1010.7 1010.4 0.0
22/11:30am 32.1 33.2 18.9 45 8.6 W 11 17 6 9 1011.0 1010.7 0.0
22/11:00am 31.9 33.9 20.0 49 7.9 WSW 9 15 5 8 1011.2 1010.9 0.0
22/10:30am 30.7 33.2 21.0 56 6.5 WSW 9 15 5 8 1011.4 1011.1 0.0
22/10:00am 29.6 32.6 21.9 63 5.2 WSW 9 15 5 8 1011.5 1011.2 0.0
22/09:30am 28.2 31.7 22.9 73 3.6 WSW 9 13 5 7 1011.7 1011.4 0.0
22/09:00am 26.6 30.2 23.1 81 2.4 W 9 13 5 7 1011.8 1011.5 0.0
22/08:30am 25.5 30.0 24.0 91 1.0 WNW 7 11 4 6 1011.7 1011.4 0.0
22/08:00am 23.4 27.5 23.0 98 0.3 WNW 6 7 3 4 1011.4 1011.1 0.0
22/07:30am 20.9 24.9 20.6 98 0.2 CALM 0 0 0 0 1011.1 1010.8 0.0
22/07:00am 19.5 22.9 19.3 99 0.1 CALM 0 0 0 0 1010.7 1010.4 0.0
22/06:30am 19.9 23.5 19.7 99 0.1 CALM 0 0 0 0 1010.5 1010.2 0.0
22/06:00am 19.9 23.5 19.7 99 0.1 CALM 0 0 0 0 1010.2 1009.9 0.0
22/05:30am 20.3 24.1 20.1 99 0.1 CALM 0 0 0 0 1010.0 1009.7 0.0
22/05:00am 20.8 24.6 20.2 96 0.4 CALM 0 0 0 0 1009.8 1009.5 0.0
22/04:30am 20.8 24.7 20.3 97 0.3 CALM 0 0 0 0 1009.3 1009.0 0.0
22/04:00am 21.5 25.7 21.0 97 0.3 CALM 0 0 0 0 1008.9 1008.6 0.0
22/03:30am 21.7 24.8 21.1 96 0.4 N 6 7 3 4 1008.8 1008.5 0.0
22/03:00am 22.1 25.1 21.3 95 0.5 NNW 7 7 4 4 1008.9 1008.6 0.0
22/02:30am 22.0 26.3 21.2 95 0.5 CALM 0 0 0 0 1008.9 1008.6 0.0
22/02:00am 22.0 26.3 21.2 95 0.5 CALM 0 0 0 0 1009.1 1008.8 0.0
22/01:30am 22.5 26.8 21.1 92 0.9 CALM 0 0 0 0 1009.4 1009.1 0.0
22/01:00am 22.8 27.1 21.1 90 1.1 CALM 0 0 0 0 1009.7 1009.4 0.0
22/12:30am 23.2 27.6 21.4 90 1.2 CALM 0 0 0 0 1010.0 1009.7 0.0
22/12:00am 23.5 27.2 21.5 88 1.3 NW 4 7 2 4 1010.5 1010.2 0.0
 
Date/Time
CST
Temp
°C
App
Temp
°C
Dew
Point
°C
Rel
Hum
%
Delta-T
°C
Wind Press
QNH
hPa
Press
MSL
hPa
Rain since
9am
mm
Dir  Spd
km/h
Gust
km/h
Spd
kts
Gust
kts
21/11:30pm 23.6 27.3 22.3 92 0.9 NW 6 7 3 4 1010.7 1010.4 0.0
21/11:00pm 24.2 28.9 22.6 91 1.1 WSW 2 6 1 3 1010.6 1010.3 0.0
21/10:30pm 25.0 28.1 21.4 80 2.4 W 7 11 4 6 1010.6 1010.3 0.0
21/10:00pm 24.4 27.9 22.8 91 1.1 WNW 9 13 5 7 1010.5 1010.2 0.0
21/09:30pm 25.2 30.5 23.1 88 1.4 CALM 0 0 0 0 1010.2 1009.9 0.0
21/09:00pm 25.4 30.7 23.0 86 1.6 CALM 0 0 0 0 1009.9 1009.6 0.0
21/08:30pm 26.3 31.2 23.1 82 2.2 NE 2 7 1 4 1009.6 1009.3 0.0
21/08:00pm 27.7 29.9 19.2 60 5.5 N 6 7 3 4 1009.3 1009.0 0.0
21/07:30pm 27.9 32.3 21.3 67 4.4 CALM 0 6 0 3 1009.1 1008.8 0.0
21/07:00pm 30.1 34.8 22.0 62 5.5 CALM 0 0 0 0 1008.8 1008.5 0.0
21/06:30pm 32.3 35.4 21.0 51 7.6 ENE 6 7 3 4 1008.4 1008.1 0.0
21/06:00pm 33.3 34.8 18.8 42 9.5 E 9 11 5 6 1008.0 1007.7 0.0
21/05:30pm 33.7 34.7 17.8 38 10.3 E 9 13 5 7 1007.8 1007.5 0.0
21/05:00pm 34.0 34.6 16.8 35 11.0 ESE 9 13 5 7 1007.7 1007.4 0.0
21/04:30pm 34.3 34.7 16.4 34 11.4 S 9 15 5 8 1007.8 1007.5 0.0
21/04:00pm 34.3 34.2 16.1 33 11.5 SE 11 17 6 9 1008.1 1007.8 0.0
21/03:30pm 34.4 34.5 15.6 32 11.8 SE 9 13 5 7 1008.4 1008.1 0.0
21/03:00pm 34.1 32.8 13.6 29 12.5 SSE 13 19 7 10 1008.5 1008.2 0.0
21/02:30pm 34.4 32.8 13.8 29 12.6 SE 15 20 8 11 1009.0 1008.7 0.0
21/02:00pm 33.9 33.3 14.5 31 12.0 SSE 11 20 6 11 1009.4 1009.1 0.0
21/01:30pm 33.6 32.6 14.5 31 11.8 SSE 13 20 7 11 1009.9 1009.6 0.0
21/01:00pm 33.6 32.6 14.7 32 11.7 SSE 13 20 7 11 1010.5 1010.2 0.0
21/12:30pm 33.0 33.6 15.8 35 10.8 SSE 7 17 4 9 1011.1 1010.8 0.0
21/12:00pm 32.5 34.3 18.7 44 9.0 SW 7 11 4 6 1011.5 1011.2 0.0
21/11:30am 31.5 34.0 19.8 49 7.7 SW 6 9 3 5 1012.1 1011.8 0.0
21/11:00am 30.3 32.5 19.1 51 7.3 SW 6 9 3 5 1012.3 1012.0 0.0
21/10:30am 29.6 32.6 19.3 54 6.7 W 2 7 1 4 1012.3 1012.0 0.0
21/10:00am 28.1 30.3 19.5 59 5.6 WSW 7 9 4 5 1012.4 1012.1 0.0
21/09:30am 26.9 28.7 18.8 61 5.2 WSW 7 11 4 6 1012.4 1012.1 0.0
21/09:00am 25.4 28.1 20.3 73 3.3 W 6 7 3 4 1012.1 1011.8 0.0
21/08:30am 23.5 26.9 21.7 90 1.2 W 6 7 3 4 1011.7 1011.4 0.0
21/08:00am 21.9 26.3 21.3 96 0.4 CALM 0 0 0 0 1011.4 1011.1 0.0
21/07:30am 20.9 24.9 20.6 98 0.2 CALM 0 0 0 0 1011.0 1010.7 0.0
21/07:00am 20.4 24.1 19.9 97 0.3 CALM 0 0 0 0 1010.5 1010.2 0.0
21/06:30am 20.6 24.4 20.1 97 0.3 CALM 0 0 0 0 1010.0 1009.7 0.0
21/06:00am 20.2 23.9 19.9 98 0.2 CALM 0 0 0 0 1009.8 1009.5 0.0
21/05:30am 19.8 23.3 19.5 98 0.2 CALM 0 0 0 0 1009.5 1009.2 0.0
21/05:00am 20.3 23.9 19.8 97 0.3 CALM 0 6 0 3 1009.2 1008.9 0.0
21/04:30am 20.6 24.4 20.1 97 0.3 CALM 0 0 0 0 1008.9 1008.6 0.0
21/04:00am 21.0 25.0 20.5 97 0.3 CALM 0 0 0 0 1008.7 1008.4 0.0
21/03:30am 21.1 25.1 20.5 96 0.4 CALM 0 0 0 0 1008.7 1008.4 0.0
21/03:00am 21.4 25.4 20.5 95 0.6 CALM 0 0 0 0 1008.7 1008.4 0.0
21/02:30am 21.6 24.9 20.7 95 0.6 NW 4 6 2 3 1008.9 1008.6 0.0
21/02:00am 22.0 25.4 20.9 93 0.7 NW 4 7 2 4 1009.1 1008.8 0.0
21/01:30am 22.1 26.3 20.9 93 0.8 CALM 0 0 0 0 1009.3 1009.0 0.0
21/01:00am 22.5 26.8 21.1 92 0.9 CALM 0 0 0 0 1009.5 1009.2 0.0
21/12:30am 22.8 27.4 21.7 93 0.7 CALM 0 0 0 0 1009.7 1009.4 0.0
21/12:00am 23.2 28.0 22.2 94 0.7 CALM 0 0 0 0 1009.8 1009.5 0.0
 
Date/Time
CST
Temp
°C
App
Temp
°C
Dew
Point
°C
Rel
Hum
%
Delta-T
°C
Wind Press
QNH
hPa
Press
MSL
hPa
Rain since
9am
mm
Dir  Spd
km/h
Gust
km/h
Spd
kts
Gust
kts
20/11:30pm 23.5 28.3 22.2 92 0.9 CALM 0 0 0 0 1010.1 1009.8 0.0
20/11:00pm 23.6 28.1 21.6 88 1.3 CALM 0 0 0 0 1010.1 1009.8 0.0
20/10:30pm 23.6 28.2 21.8 90 1.2 CALM 0 0 0 0 1010.0 1009.7 0.0
20/10:00pm 24.1 29.1 22.5 91 1.1 CALM 0 0 0 0 1009.8 1009.5 0.0
20/09:30pm 24.4 29.0 21.8 85 1.7 CALM 0 0 0 0 1009.4 1009.1 0.0
20/09:00pm 24.8 29.9 22.7 88 1.4 CALM 0 0 0 0 1009.2 1008.9 0.0
20/08:30pm 25.9 30.3 21.4 76 3.0 CALM 0 0 0 0 1009.0 1008.7 0.0
20/08:00pm 27.1 30.7 19.7 64 4.8 CALM 0 0 0 0 1008.5 1008.2 0.0
20/07:30pm 27.8 31.1 21.4 68 4.3 SE 6 11 3 6 1008.3 1008.0 0.0
20/07:00pm 30.0 32.5 20.2 55 6.5 SE 7 9 4 5 1007.8 1007.5 0.0
20/06:30pm 31.2 33.7 20.2 52 7.3 ESE 7 9 4 5 1007.5 1007.2 0.0
20/06:00pm 32.3 33.8 19.0 45 8.7 ESE 9 11 5 6 1006.9 1006.6 0.0
20/05:30pm 33.0 33.6 16.8 38 10.3 E 9 13 5 7 1006.5 1006.2 0.0
20/05:00pm 33.3 32.8 16.0 35 10.9 SE 13 17 7 9 1006.3 1006.0 0.0
20/04:30pm 33.9 33.4 16.0 34 11.3 SE 13 19 7 10 1006.3 1006.0 0.0
20/04:00pm 33.8 32.5 13.6 29 12.3 SSE 13 22 7 12 1006.3 1006.0 0.0
20/03:30pm 33.8 32.6 15.0 32 11.7 SE 15 22 8 12 1006.5 1006.2 0.0
20/03:00pm 33.8 32.8 14.6 31 11.9 SE 13 24 7 13 1006.5 1006.2 0.0
20/02:30pm 33.7 33.5 16.6 36 10.9 ESE 13 20 7 11 1006.9 1006.6 0.0
20/02:00pm 33.3 33.7 16.4 36 10.7 SSE 9 24 5 13 1007.3 1007.0 0.0
20/01:30pm 33.1 31.9 16.1 36 10.7 SE 17 28 9 15 1007.7 1007.4 0.0
20/01:00pm 33.5 32.1 16.5 36 10.8 ESE 19 28 10 15 1008.3 1008.0 0.0
20/12:30pm 32.7 32.1 17.6 40 9.7 S 17 26 9 14 1008.7 1008.4 0.0

Other Formats:

Comma delimited format used in spreadsheet applications
http://www.bom.gov.au/fwo/IDD60801/IDD60801.94128.axf

JavaScript Object Notation format (JSON) in row-major order
http://www.bom.gov.au/fwo/IDD60801/IDD60801.94128.json